createdAt,value
2022-08-14T00:00:48.371Z,24.08
2022-08-14T00:01:55.178Z,24.07
2022-08-14T00:02:57.283Z,24.06
2022-08-14T00:04:01.721Z,24.05
2022-08-14T00:05:06.165Z,24.04
2022-08-14T00:06:13.914Z,24.03
2022-08-14T00:07:15.072Z,24.03
2022-08-14T00:08:43.768Z,24.01
2022-08-14T00:09:23.960Z,24.00
2022-08-14T00:10:52.245Z,23.99
2022-08-14T00:11:33.653Z,23.97
2022-08-14T00:12:39.327Z,23.96
2022-08-14T00:13:42.554Z,23.95
2022-08-14T00:14:46.984Z,23.94
2022-08-14T00:15:51.436Z,23.92
2022-08-14T00:16:56.142Z,23.91
2022-08-14T00:18:00.682Z,23.90
2022-08-14T00:19:06.077Z,23.89
2022-08-14T00:20:09.565Z,23.88
2022-08-14T00:21:14.024Z,23.88
2022-08-14T00:22:44.676Z,23.87
2022-08-14T00:23:22.936Z,23.86
2022-08-14T00:24:28.941Z,23.84
2022-08-14T00:25:41.623Z,23.83
2022-08-14T00:26:36.306Z,23.82
2022-08-14T00:27:40.757Z,23.80
2022-08-14T00:28:45.215Z,23.79
2022-08-14T00:29:49.657Z,23.78
2022-08-14T00:30:54.114Z,23.76
2022-08-14T00:31:58.577Z,23.75
2022-08-14T00:33:16.212Z,23.74
2022-08-14T00:34:37.634Z,23.72
2022-08-14T00:35:12.637Z,23.71
2022-08-14T00:36:35.224Z,23.70
2022-08-14T00:37:20.870Z,23.68
2022-08-14T00:38:25.327Z,23.68
2022-08-14T00:39:29.838Z,23.67
2022-08-14T00:40:35.716Z,23.65
2022-08-14T00:41:38.817Z,23.65
2022-08-14T00:42:55.104Z,23.64
2022-08-14T00:43:47.629Z,23.63
2022-08-14T00:44:52.089Z,23.63
2022-08-14T00:45:56.529Z,23.61
2022-08-14T00:47:01.074Z,23.62
2022-08-14T00:48:05.440Z,23.61
2022-08-14T00:49:11.517Z,23.60
2022-08-14T00:50:17.789Z,23.60
2022-08-14T00:51:18.791Z,23.59
2022-08-14T00:52:23.256Z,23.59
2022-08-14T00:53:27.701Z,23.58
2022-08-14T00:54:32.159Z,23.57
2022-08-14T00:55:36.630Z,23.57
2022-08-14T00:56:41.081Z,23.56
2022-08-14T00:57:45.551Z,23.56
2022-08-14T00:58:49.993Z,23.55
2022-08-14T00:59:54.692Z,23.54
2022-08-14T01:00:59.175Z,23.54
2022-08-14T01:02:04.259Z,23.53
2022-08-14T01:03:08.322Z,23.53
2022-08-14T01:04:37.312Z,23.52
2022-08-14T01:05:17.212Z,23.52
2022-08-14T01:06:21.672Z,23.51
2022-08-14T01:07:27.262Z,23.50
2022-08-14T01:08:51.626Z,23.50
2022-08-14T01:09:35.063Z,23.49
2022-08-14T01:10:40.323Z,23.48
2022-08-14T01:11:45.137Z,23.47
2022-08-14T01:12:48.453Z,23.46
2022-08-14T01:14:01.206Z,23.45
2022-08-14T01:14:58.173Z,23.43
2022-08-14T01:16:02.936Z,23.43
2022-08-14T01:17:08.927Z,23.42
2022-08-14T01:18:10.742Z,23.41
2022-08-14T01:19:15.196Z,23.39
2022-08-14T01:20:27.257Z,23.38
2022-08-14T01:21:24.376Z,23.37
2022-08-14T01:22:29.547Z,23.36
2022-08-14T01:23:46.599Z,23.35
2022-08-14T01:24:37.725Z,23.34
2022-08-14T01:25:42.197Z,23.34
2022-08-14T01:26:47.455Z,23.33
2022-08-14T01:27:56.797Z,23.33
2022-08-14T01:28:57.647Z,23.32
2022-08-14T01:30:03.595Z,23.30
2022-08-14T01:31:04.454Z,23.29
2022-08-14T01:32:10.483Z,23.28
2022-08-14T01:33:13.397Z,23.27
2022-08-14T01:35:18.066Z,23.27
2022-08-14T01:36:03.056Z,23.25
2022-08-14T01:36:26.788Z,23.24
2022-08-14T01:37:31.616Z,23.22
2022-08-14T01:38:37.315Z,23.21
2022-08-14T01:39:40.177Z,23.21
2022-08-14T01:40:44.617Z,23.20
2022-08-14T01:41:49.067Z,23.20
2022-08-14T01:42:53.539Z,23.20
2022-08-14T01:43:58.008Z,23.19
2022-08-14T01:45:02.459Z,23.19
2022-08-14T01:46:07.194Z,23.19
2022-08-14T01:47:11.654Z,23.18
2022-08-14T01:48:15.861Z,23.18
2022-08-14T01:49:20.310Z,23.17
2022-08-14T01:50:26.560Z,23.17
2022-08-14T01:51:29.212Z,23.17
2022-08-14T01:52:58.511Z,23.16
2022-08-14T01:53:38.141Z,23.16
2022-08-14T01:54:42.609Z,23.15
2022-08-14T01:55:47.071Z,23.15
2022-08-14T01:56:55.638Z,23.15
2022-08-14T01:58:18.205Z,23.14
2022-08-14T01:59:00.453Z,23.14
2022-08-14T02:00:04.901Z,23.14
2022-08-14T02:01:09.399Z,23.14
2022-08-14T02:02:19.049Z,23.14
2022-08-14T02:03:18.312Z,23.14
2022-08-14T02:04:55.711Z,23.14
2022-08-14T02:05:27.205Z,23.13
2022-08-14T02:06:32.109Z,23.13
2022-08-14T02:07:53.496Z,23.12
2022-08-14T02:08:52.635Z,23.11
2022-08-14T02:09:45.061Z,23.10
2022-08-14T02:10:49.512Z,23.08
2022-08-14T02:11:54.650Z,23.06
2022-08-14T02:12:59.453Z,23.04
2022-08-14T02:14:07.330Z,23.03
2022-08-14T02:15:07.324Z,23.01
2022-08-14T02:16:13.472Z,22.99
2022-08-14T02:17:16.225Z,22.97
2022-08-14T02:18:20.694Z,22.95
2022-08-14T02:19:25.170Z,22.93
2022-08-14T02:20:29.621Z,22.91
2022-08-14T02:21:39.567Z,22.90
2022-08-14T02:22:47.603Z,22.88
2022-08-14T02:23:43.002Z,22.85
2022-08-14T02:24:47.881Z,22.84
2022-08-14T02:25:54.557Z,22.82
2022-08-14T02:26:58.357Z,22.81
2022-08-14T02:28:23.956Z,22.79
2022-08-14T02:29:05.289Z,22.77
2022-08-14T02:30:09.735Z,22.76
2022-08-14T02:31:14.879Z,22.74
2022-08-14T02:32:29.950Z,22.72
2022-08-14T02:33:23.085Z,22.71
2022-08-14T02:34:27.717Z,22.69
2022-08-14T02:35:32.891Z,22.69
2022-08-14T02:37:02.577Z,22.67
2022-08-14T02:37:47.899Z,22.65
2022-08-14T02:38:45.365Z,22.63
2022-08-14T02:39:49.844Z,22.61
2022-08-14T02:40:54.275Z,22.60
2022-08-14T02:41:58.727Z,22.59
2022-08-14T02:43:03.849Z,22.57
2022-08-14T02:44:07.657Z,22.56
2022-08-14T02:45:12.098Z,22.55
2022-08-14T02:46:20.094Z,22.53
2022-08-14T02:47:21.359Z,22.53
2022-08-14T02:49:03.722Z,22.51
2022-08-14T02:49:34.056Z,22.50
2022-08-14T02:50:34.349Z,22.49
2022-08-14T02:51:38.818Z,22.48
2022-08-14T02:52:57.172Z,22.47
2022-08-14T02:53:47.830Z,22.44
2022-08-14T02:54:52.259Z,22.43
2022-08-14T02:55:56.717Z,22.42
2022-08-14T02:57:15.530Z,22.41
2022-08-14T02:58:06.021Z,22.40
2022-08-14T02:59:10.090Z,22.39
2022-08-14T03:00:18.589Z,22.37
2022-08-14T03:01:19.081Z,22.36
2022-08-14T03:02:48.977Z,22.35
2022-08-14T03:03:27.918Z,22.34
2022-08-14T03:04:32.393Z,22.33
2022-08-14T03:05:37.057Z,22.32
2022-08-14T03:06:57.820Z,22.30
2022-08-14T03:07:45.771Z,22.30
2022-08-14T03:08:50.220Z,22.29
2022-08-14T03:10:25.998Z,22.28
2022-08-14T03:10:59.152Z,22.27
2022-08-14T03:12:04.896Z,22.27
2022-08-14T03:13:13.678Z,22.26
2022-08-14T03:14:12.550Z,22.24
2022-08-14T03:15:19.205Z,22.23
2022-08-14T03:16:26.792Z,22.22
2022-08-14T03:17:25.983Z,22.21
2022-08-14T03:18:30.722Z,22.21
2022-08-14T03:19:34.906Z,22.20
2022-08-14T03:20:39.365Z,22.20
2022-08-14T03:21:43.812Z,22.20
2022-08-14T03:22:50.872Z,22.20
2022-08-14T03:23:52.743Z,22.19
2022-08-14T03:24:57.233Z,22.19
2022-08-14T03:26:01.683Z,22.19
2022-08-14T03:27:06.130Z,22.19
2022-08-14T03:28:14.327Z,22.18
2022-08-14T03:29:15.042Z,22.17
2022-08-14T03:30:23.403Z,22.18
2022-08-14T03:31:26.032Z,22.17
2022-08-14T03:32:30.519Z,22.17
2022-08-14T03:33:37.861Z,22.17
2022-08-14T03:34:47.728Z,22.16
2022-08-14T03:36:00.400Z,22.16
2022-08-14T03:37:37.445Z,22.15
2022-08-14T03:39:10.653Z,22.15
2022-08-14T03:39:14.676Z,22.15
2022-08-14T03:40:00.401Z,22.15
2022-08-14T03:41:04.129Z,22.15
2022-08-14T03:42:19.344Z,22.16
2022-08-14T03:43:13.327Z,22.15
2022-08-14T03:45:25.973Z,22.14
2022-08-14T03:45:35.117Z,22.15
2022-08-14T03:46:38.955Z,22.14
2022-08-14T03:47:46.168Z,22.14
2022-08-14T03:48:38.089Z,22.15
2022-08-14T03:49:42.294Z,22.15
2022-08-14T03:50:44.848Z,22.15
2022-08-14T03:51:49.318Z,22.15
2022-08-14T03:52:55.954Z,22.15
2022-08-14T03:53:58.231Z,22.15
2022-08-14T03:55:02.727Z,22.14
2022-08-14T03:56:07.157Z,22.13
2022-08-14T03:57:11.618Z,22.13
2022-08-14T03:58:23.702Z,22.13
2022-08-14T03:59:20.546Z,22.12
2022-08-14T04:00:44.376Z,22.12
2022-08-14T04:01:38.933Z,22.11
2022-08-14T04:02:37.700Z,22.11
2022-08-14T04:03:38.394Z,22.11
2022-08-14T04:04:42.847Z,22.10
2022-08-14T04:05:48.964Z,22.09
2022-08-14T04:08:30.249Z,21.79
2022-08-14T04:09:22.074Z,21.91
2022-08-14T04:10:32.729Z,21.98
2022-08-14T04:11:30.945Z,22.02
2022-08-14T04:12:35.423Z,22.03
2022-08-14T04:13:39.776Z,22.04
2022-08-14T04:14:44.202Z,22.04
2022-08-14T04:16:01.239Z,22.05
2022-08-14T04:16:53.075Z,22.05
2022-08-14T04:17:57.467Z,22.06
2022-08-14T04:19:01.998Z,22.06
2022-08-14T04:20:06.417Z,22.07
2022-08-14T04:21:10.858Z,22.06
2022-08-14T04:22:16.745Z,22.07
2022-08-14T04:23:23.358Z,22.08
2022-08-14T04:24:25.897Z,22.09
2022-08-14T04:25:28.571Z,22.10
2022-08-14T04:26:42.041Z,22.10
2022-08-14T04:28:01.880Z,22.11
2022-08-14T04:29:07.881Z,22.12
2022-08-14T04:29:46.253Z,22.14
2022-08-14T04:30:50.713Z,22.15
2022-08-14T04:33:04.688Z,22.18
2022-08-14T04:33:10.487Z,22.16
2022-08-14T04:34:04.019Z,22.19
2022-08-14T04:35:10.669Z,22.20
2022-08-14T04:36:16.078Z,22.22
2022-08-14T04:37:22.007Z,22.24
2022-08-14T04:38:36.836Z,22.26
2022-08-14T04:39:26.230Z,22.27
2022-08-14T04:40:30.641Z,22.29
2022-08-14T04:41:35.068Z,22.30
2022-08-14T04:42:39.501Z,22.33
2022-08-14T04:43:43.933Z,22.35
2022-08-14T04:59:52.540Z,21.23
2022-08-14T05:00:56.981Z,21.48
2022-08-14T05:02:01.525Z,21.66
2022-08-14T05:03:07.430Z,21.78
2022-08-14T05:04:14.622Z,21.90
2022-08-14T05:05:14.583Z,22.01
2022-08-14T05:06:37.360Z,22.10
2022-08-14T05:07:46.664Z,22.18
2022-08-14T05:08:31.963Z,22.27
2022-08-14T05:09:32.144Z,22.34
2022-08-14T05:10:37.585Z,22.41
2022-08-14T05:11:40.937Z,22.48
2022-08-14T05:13:13.844Z,22.54
2022-08-14T05:14:54.878Z,22.66
2022-08-14T05:15:58.483Z,22.72
2022-08-14T05:17:02.855Z,22.78
2022-08-14T05:18:17.464Z,22.83
2022-08-14T05:19:18.445Z,22.88
2022-08-14T05:21:55.270Z,22.93
2022-08-14T05:22:00.552Z,22.97
2022-08-14T05:22:24.755Z,23.02
2022-08-14T05:23:29.113Z,23.06
2022-08-14T05:24:33.498Z,23.10
2022-08-14T05:25:37.865Z,23.14
2022-08-14T05:26:42.265Z,23.18
2022-08-14T05:27:46.634Z,23.22
2022-08-14T05:28:51.003Z,23.26
2022-08-14T05:29:57.053Z,23.30
2022-08-14T05:30:59.740Z,23.34
2022-08-14T05:32:04.126Z,23.38
2022-08-14T05:33:08.487Z,23.42
2022-08-14T05:34:12.857Z,23.46
2022-08-14T05:35:17.217Z,23.49
2022-08-14T05:36:21.597Z,23.52
2022-08-14T05:37:25.976Z,23.56
2022-08-14T05:38:31.142Z,23.59
2022-08-14T05:39:34.779Z,23.62
2022-08-14T05:40:39.077Z,23.66
2022-08-14T05:41:53.329Z,23.69
2022-08-14T05:42:52.729Z,23.73
2022-08-14T05:43:52.486Z,23.77
2022-08-14T05:44:56.848Z,23.81
2022-08-14T05:46:01.220Z,23.83
2022-08-14T05:47:05.600Z,23.87
2022-08-14T05:48:09.979Z,23.90
2022-08-14T05:49:14.357Z,23.92
2022-08-14T05:50:19.689Z,23.94
2022-08-14T05:51:23.116Z,23.97
2022-08-14T05:52:39.226Z,24.00
2022-08-14T05:53:33.618Z,24.03
2022-08-14T05:54:36.220Z,24.07
2022-08-14T05:55:42.869Z,24.10
2022-08-14T05:56:44.971Z,24.13
2022-08-14T05:57:49.328Z,24.16
2022-08-14T05:58:53.690Z,24.19
2022-08-14T05:59:58.050Z,24.22
2022-08-14T06:01:02.426Z,24.26
2022-08-14T06:02:06.800Z,24.30
2022-08-14T06:03:11.174Z,24.35
2022-08-14T06:04:15.760Z,24.38
2022-08-14T06:05:23.391Z,24.43
2022-08-14T06:06:24.272Z,24.47
2022-08-14T06:07:28.661Z,24.52
2022-08-14T06:08:41.510Z,24.56
2022-08-14T06:09:40.344Z,24.60
2022-08-14T06:10:41.774Z,24.64
2022-08-14T06:11:49.884Z,24.68
2022-08-14T06:13:00.135Z,24.72
2022-08-14T06:13:54.903Z,24.76
2022-08-14T06:14:59.298Z,24.81
2022-08-14T06:16:03.663Z,24.85
2022-08-14T06:17:08.062Z,24.90
2022-08-14T06:18:12.443Z,24.95
2022-08-14T06:19:18.422Z,25.00
2022-08-14T06:20:22.119Z,25.05
2022-08-14T06:21:26.051Z,25.09
2022-08-14T06:22:29.933Z,25.14
2022-08-14T06:23:34.302Z,25.18
2022-08-14T06:24:38.681Z,25.23
2022-08-14T06:25:43.042Z,25.29
2022-08-14T06:26:54.328Z,25.34
2022-08-14T06:27:52.047Z,25.38
2022-08-14T06:28:56.422Z,25.43
2022-08-14T06:30:00.786Z,25.47
2022-08-14T06:31:05.167Z,25.53
2022-08-14T06:32:38.725Z,25.59
2022-08-14T06:33:15.724Z,25.64
2022-08-14T06:35:04.070Z,25.70
2022-08-14T06:35:22.946Z,25.75
2022-08-14T06:36:27.316Z,25.80
2022-08-14T06:37:31.700Z,25.84
2022-08-14T06:38:36.057Z,25.88
2022-08-14T06:39:40.430Z,25.93
2022-08-14T06:40:45.068Z,25.97
2022-08-14T06:41:57.857Z,26.01
2022-08-14T06:42:53.817Z,26.06
2022-08-14T06:43:58.176Z,26.09
2022-08-14T06:45:02.937Z,26.13
2022-08-14T06:46:06.928Z,26.17
2022-08-14T06:47:11.298Z,26.22
2022-08-14T06:48:17.251Z,26.27
2022-08-14T06:49:20.371Z,26.32
2022-08-14T06:50:28.053Z,26.34
2022-08-14T06:51:44.648Z,26.38
2022-08-14T06:52:33.509Z,26.41
2022-08-14T06:53:37.879Z,26.43
2022-08-14T06:54:42.251Z,26.45
2022-08-14T06:55:56.175Z,26.48
2022-08-14T06:56:54.122Z,26.52
2022-08-14T06:57:55.382Z,26.55
2022-08-14T06:59:00.029Z,26.60
2022-08-14T07:00:04.391Z,26.64
2022-08-14T07:01:08.801Z,26.69
2022-08-14T07:02:17.982Z,26.72
2022-08-14T07:03:17.648Z,26.77
2022-08-14T07:04:23.861Z,26.81
2022-08-14T07:05:26.252Z,26.86
2022-08-14T07:06:46.473Z,26.90
2022-08-14T07:07:35.022Z,26.95
2022-08-14T07:08:39.382Z,27.01
2022-08-14T07:09:51.033Z,27.07
2022-08-14T07:10:48.352Z,27.13
2022-08-14T07:11:52.732Z,27.18
2022-08-14T07:13:03.791Z,27.21
2022-08-14T07:14:01.480Z,27.25
2022-08-14T07:15:05.871Z,27.28
2022-08-14T07:16:10.212Z,27.31
2022-08-14T07:17:14.573Z,27.35
2022-08-14T07:18:18.947Z,27.39
2022-08-14T07:19:23.333Z,27.42
2022-08-14T07:20:31.108Z,27.47
2022-08-14T07:21:32.083Z,27.51
2022-08-14T07:22:56.111Z,27.56
2022-08-14T07:23:44.081Z,27.62
2022-08-14T07:24:45.255Z,27.67
2022-08-14T07:25:51.509Z,27.72
2022-08-14T07:26:54.018Z,27.76
2022-08-14T07:27:58.375Z,27.81
2022-08-14T07:29:02.744Z,27.85
2022-08-14T07:30:09.099Z,27.87
2022-08-14T07:31:11.509Z,27.89
2022-08-14T07:32:20.033Z,27.90
2022-08-14T07:33:20.896Z,27.93
2022-08-14T07:34:36.260Z,27.96
2022-08-14T07:35:30.316Z,28.01
2022-08-14T07:36:33.387Z,28.03
2022-08-14T07:37:37.767Z,28.05
2022-08-14T07:38:42.157Z,28.08
2022-08-14T07:39:46.553Z,28.12
2022-08-14T07:40:52.866Z,28.15
2022-08-14T07:41:55.270Z,28.17
2022-08-14T07:42:59.663Z,28.18
2022-08-14T07:44:28.758Z,28.18
2022-08-14T07:45:08.397Z,28.17
2022-08-14T07:46:12.757Z,28.17
2022-08-14T07:47:17.144Z,28.19
2022-08-14T07:48:25.242Z,28.21
2022-08-14T07:49:25.898Z,28.26
2022-08-14T07:50:34.699Z,28.31
2022-08-14T07:51:36.950Z,28.36
2022-08-14T07:52:39.006Z,28.42
2022-08-14T07:53:43.399Z,28.48
2022-08-14T07:54:47.756Z,28.53
2022-08-14T07:56:00.220Z,28.58
2022-08-14T07:56:56.886Z,28.61
2022-08-14T07:58:01.131Z,28.64
2022-08-14T07:59:05.528Z,28.66
2022-08-14T08:00:09.899Z,28.70
2022-08-14T08:01:14.259Z,28.72
2022-08-14T08:02:20.576Z,28.74
2022-08-14T08:03:23.587Z,28.75
2022-08-14T08:04:27.660Z,28.77
2022-08-14T08:05:32.020Z,28.80
2022-08-14T08:06:36.411Z,28.86
2022-08-14T08:07:40.781Z,28.92
2022-08-14T08:08:45.181Z,28.98
2022-08-14T08:09:49.558Z,29.02
2022-08-14T08:11:01.919Z,29.04
2022-08-14T08:11:58.302Z,29.07
2022-08-14T08:13:02.681Z,29.11
2022-08-14T08:14:10.673Z,29.15
2022-08-14T08:15:11.463Z,29.20
2022-08-14T08:16:15.840Z,29.24
2022-08-14T08:17:20.235Z,29.27
2022-08-14T08:18:29.652Z,29.32
2022-08-14T08:19:28.983Z,29.36
2022-08-14T08:20:33.354Z,29.39
2022-08-14T08:21:37.734Z,29.41
2022-08-14T08:22:43.389Z,29.39
2022-08-14T08:23:51.410Z,29.39
2022-08-14T08:24:50.970Z,29.39
2022-08-14T08:25:55.241Z,29.40
2022-08-14T08:26:59.618Z,29.42
2022-08-14T08:28:08.293Z,29.47
2022-08-14T08:29:08.383Z,29.51
2022-08-14T08:30:12.764Z,29.56
2022-08-14T08:31:17.125Z,29.61
2022-08-14T08:32:21.494Z,29.68
2022-08-14T08:33:25.867Z,29.72
2022-08-14T08:34:30.440Z,29.75
2022-08-14T08:35:46.848Z,29.76
2022-08-14T08:36:38.986Z,29.77
2022-08-14T08:37:43.787Z,29.77
2022-08-14T08:39:18.702Z,29.78
2022-08-14T08:40:01.415Z,29.81
2022-08-14T08:40:56.863Z,29.85
2022-08-14T08:42:01.177Z,29.88
2022-08-14T08:43:05.547Z,29.89
2022-08-14T08:44:17.318Z,29.91
2022-08-14T08:45:14.308Z,29.95
2022-08-14T08:46:23.387Z,30.00
2022-08-14T08:47:23.311Z,30.05
2022-08-14T08:48:31.600Z,30.07
2022-08-14T08:49:36.138Z,30.09
2022-08-14T08:51:43.123Z,29.90
2022-08-14T08:52:47.137Z,30.05
2022-08-14T08:53:51.572Z,30.15
2022-08-14T08:54:56.049Z,30.22
2022-08-14T08:56:00.491Z,30.28
2022-08-14T08:57:05.209Z,30.35
2022-08-14T08:58:12.701Z,30.41
2022-08-14T08:59:14.151Z,30.45
2022-08-14T09:00:24.282Z,30.49
2022-08-14T09:01:23.149Z,30.51
2022-08-14T09:02:27.927Z,30.53
2022-08-14T09:03:31.931Z,30.55
2022-08-14T09:04:36.413Z,30.56
2022-08-14T09:05:40.853Z,30.59
2022-08-14T09:07:00.946Z,30.63
2022-08-14T09:07:49.772Z,30.69
2022-08-14T09:08:54.254Z,30.74
2022-08-14T09:10:00.526Z,30.81
2022-08-14T09:11:18.437Z,30.87
2022-08-14T09:12:07.623Z,30.90
2022-08-14T09:13:12.073Z,30.93
2022-08-14T09:14:16.545Z,30.97
2022-08-14T09:15:20.994Z,31.01
2022-08-14T09:16:25.836Z,31.04
2022-08-14T09:17:29.921Z,31.04
2022-08-14T09:18:34.365Z,31.05
2022-08-14T09:19:38.842Z,31.06
2022-08-14T09:20:43.294Z,31.09
2022-08-14T09:21:47.745Z,31.12
2022-08-14T09:22:52.299Z,31.15
2022-08-14T09:24:28.504Z,31.17
2022-08-14T09:25:01.116Z,31.21
2022-08-14T09:26:20.980Z,31.26
2022-08-14T09:27:10.015Z,31.31
2022-08-14T09:28:14.476Z,31.34
2022-08-14T09:29:19.827Z,31.39
2022-08-14T09:30:32.692Z,31.42
2022-08-14T09:31:27.846Z,31.44
2022-08-14T09:32:58.821Z,31.47
2022-08-14T09:33:36.745Z,31.49
2022-08-14T09:34:58.512Z,31.50
2022-08-14T09:35:45.684Z,31.51
2022-08-14T09:36:50.144Z,31.53
2022-08-14T09:37:55.175Z,31.56
2022-08-14T09:38:59.050Z,31.61
2022-08-14T09:40:03.745Z,31.68
2022-08-14T09:41:07.948Z,31.74
2022-08-14T09:42:21.022Z,31.78
2022-08-14T09:43:22.337Z,31.81
2022-08-14T09:44:21.318Z,31.86
2022-08-14T09:45:25.769Z,31.89
2022-08-14T09:46:30.227Z,31.93
2022-08-14T09:47:34.669Z,31.97
2022-08-14T09:48:39.120Z,31.99
2022-08-14T09:49:43.603Z,31.99
2022-08-14T09:50:48.039Z,32.00
2022-08-14T09:51:58.807Z,32.04
2022-08-14T09:52:57.718Z,32.07
2022-08-14T09:54:18.533Z,32.11
2022-08-14T09:55:05.889Z,32.14
2022-08-14T09:56:10.341Z,32.14
2022-08-14T09:57:14.780Z,32.15
2022-08-14T09:58:22.584Z,32.14
2022-08-14T09:59:23.673Z,32.15
2022-08-14T10:00:30.244Z,32.18
2022-08-14T10:01:32.600Z,32.21
2022-08-14T10:02:37.108Z,32.25
2022-08-14T10:03:41.516Z,32.28
2022-08-14T10:04:50.143Z,32.32
2022-08-14T10:05:50.491Z,32.35
2022-08-14T10:06:54.903Z,32.39
2022-08-14T10:07:59.354Z,32.44
2022-08-14T10:09:04.177Z,32.44
2022-08-14T10:10:23.421Z,32.48
2022-08-14T10:11:12.735Z,32.53
2022-08-14T10:12:18.862Z,32.59
2022-08-14T10:13:21.621Z,32.63
2022-08-14T10:14:35.209Z,32.68
2022-08-14T10:15:30.543Z,32.72
2022-08-14T10:16:35.066Z,32.78
2022-08-14T10:17:39.806Z,32.83
2022-08-14T10:18:43.892Z,32.83
2022-08-14T10:19:48.381Z,32.86
2022-08-14T10:20:52.833Z,32.89
2022-08-14T10:21:58.574Z,32.93
2022-08-14T10:23:23.100Z,32.95
2022-08-14T10:24:06.172Z,33.00
2022-08-14T10:25:10.633Z,33.01
2022-08-14T10:26:22.676Z,32.99
2022-08-14T10:27:19.524Z,33.02
2022-08-14T10:28:57.471Z,33.07
2022-08-14T10:29:28.414Z,33.10
2022-08-14T10:30:33.166Z,33.14
2022-08-14T10:31:44.853Z,33.20
2022-08-14T10:32:51.642Z,33.25
2022-08-14T10:33:50.809Z,33.30
2022-08-14T10:34:52.750Z,33.33
2022-08-14T10:35:55.425Z,33.36
2022-08-14T10:37:02.494Z,33.38
2022-08-14T10:38:07.219Z,33.43
2022-08-14T10:39:08.808Z,33.53
2022-08-14T10:40:43.405Z,33.62
2022-08-14T10:41:17.837Z,33.69
2022-08-14T10:42:22.247Z,33.74
2022-08-14T10:43:26.761Z,33.78
2022-08-14T10:44:31.159Z,33.83
2022-08-14T10:45:42.067Z,33.90
2022-08-14T10:47:36.501Z,33.97
2022-08-14T10:48:07.526Z,34.04
2022-08-14T10:48:48.959Z,34.06
2022-08-14T10:49:53.409Z,34.06
2022-08-14T10:50:57.868Z,34.09
2022-08-14T10:52:02.310Z,34.13
2022-08-14T10:53:08.020Z,34.15
2022-08-14T10:54:26.297Z,34.15
2022-08-14T10:55:15.660Z,34.14
2022-08-14T10:56:21.933Z,34.20
2022-08-14T10:57:25.224Z,34.27
2022-08-14T10:58:29.013Z,34.36
2022-08-14T10:59:37.237Z,34.45
2022-08-14T11:00:37.941Z,34.54
2022-08-14T11:01:42.384Z,34.63
2022-08-14T11:02:54.637Z,34.72
2022-08-14T11:03:56.297Z,34.78
2022-08-14T11:04:59.304Z,34.81
2022-08-14T11:06:00.152Z,34.85
2022-08-14T11:07:05.849Z,34.87
2022-08-14T11:08:12.848Z,34.90
2022-08-14T11:09:13.489Z,34.93
2022-08-14T11:10:17.932Z,34.95
2022-08-14T11:11:22.391Z,34.95
2022-08-14T11:12:34.094Z,34.95
2022-08-14T11:13:31.274Z,34.96
2022-08-14T11:14:35.704Z,34.95
2022-08-14T11:15:40.998Z,34.96
2022-08-14T11:16:49.030Z,34.99
2022-08-14T11:17:49.052Z,35.03
2022-08-14T11:18:55.760Z,35.09
2022-08-14T11:19:57.934Z,35.10
2022-08-14T11:21:02.395Z,35.15
2022-08-14T11:22:06.832Z,35.17
2022-08-14T11:23:11.264Z,35.17
2022-08-14T11:24:54.118Z,35.12
2022-08-14T11:25:20.135Z,35.01
2022-08-14T11:26:24.612Z,35.03
2022-08-14T11:27:33.495Z,35.08
2022-08-14T11:28:46.882Z,35.13
2022-08-14T11:29:37.935Z,35.18
2022-08-14T11:30:50.981Z,35.24
2022-08-14T11:31:46.835Z,35.33
2022-08-14T11:32:51.274Z,35.42
2022-08-14T11:33:55.767Z,35.50
2022-08-14T11:35:00.205Z,35.57
2022-08-14T11:36:04.677Z,35.64
2022-08-14T11:37:23.548Z,35.72
2022-08-14T11:38:13.560Z,35.81
2022-08-14T11:39:18.050Z,35.89
2022-08-14T11:40:28.625Z,35.94
2022-08-14T11:41:26.927Z,35.96
2022-08-14T11:42:57.622Z,35.97
2022-08-14T11:43:35.818Z,35.99
2022-08-14T11:44:45.725Z,36.04
2022-08-14T11:45:44.730Z,36.11
2022-08-14T11:46:49.180Z,36.19
2022-08-14T11:48:13.555Z,36.25
2022-08-14T11:49:02.562Z,36.28
2022-08-14T11:50:02.502Z,36.27
2022-08-14T11:51:06.959Z,36.29
2022-08-14T11:52:11.408Z,36.33
2022-08-14T11:53:15.854Z,36.38
2022-08-14T11:54:20.352Z,36.44
2022-08-14T11:55:26.301Z,36.48
2022-08-14T11:56:29.663Z,36.52
2022-08-14T11:57:33.644Z,36.55
2022-08-14T11:58:38.100Z,36.60
2022-08-14T11:59:44.285Z,36.63
2022-08-14T12:00:46.981Z,36.63
2022-08-14T12:01:51.465Z,36.61
2022-08-14T12:03:02.555Z,36.61
2022-08-14T12:04:01.043Z,36.64
2022-08-14T12:05:04.930Z,36.68
2022-08-14T12:06:09.579Z,36.68
2022-08-14T12:07:13.721Z,36.69
2022-08-14T12:08:24.482Z,36.74
2022-08-14T12:09:22.611Z,36.76
2022-08-14T12:10:42.425Z,36.83
2022-08-14T12:11:31.516Z,36.97
2022-08-14T12:12:36.647Z,37.12
2022-08-14T12:13:44.291Z,37.23
2022-08-14T12:14:44.843Z,37.35
2022-08-14T12:15:49.298Z,37.54
2022-08-14T12:16:53.754Z,37.73
2022-08-14T12:17:58.203Z,37.74
2022-08-14T12:19:02.642Z,37.66
2022-08-14T12:20:07.098Z,37.51
2022-08-14T12:21:11.546Z,37.38
2022-08-14T12:22:29.397Z,37.40
2022-08-14T12:23:20.465Z,37.99
2022-08-14T12:24:36.145Z,39.06
2022-08-14T12:25:29.401Z,39.89
2022-08-14T12:26:40.747Z,40.07
2022-08-14T12:27:41.729Z,39.99
2022-08-14T12:29:00.493Z,40.19
2022-08-14T12:29:47.198Z,40.34
2022-08-14T12:30:53.542Z,40.20
2022-08-14T12:31:56.106Z,39.96
2022-08-14T12:33:00.554Z,39.70
2022-08-14T12:34:10.247Z,40.02
2022-08-14T12:35:10.660Z,40.62
2022-08-14T12:36:17.954Z,40.74
2022-08-14T12:37:18.624Z,40.53
2022-08-14T12:38:23.068Z,40.28
2022-08-14T12:39:27.530Z,40.06
2022-08-14T12:40:31.948Z,40.00
2022-08-14T12:41:37.226Z,40.46
2022-08-14T12:42:47.446Z,41.36
2022-08-14T12:43:45.350Z,42.54
2022-08-14T12:44:49.798Z,43.17
2022-08-14T12:45:54.250Z,43.55
2022-08-14T12:46:58.706Z,44.42
2022-08-14T12:48:21.279Z,45.17
2022-08-14T12:49:07.580Z,45.36
2022-08-14T12:50:12.016Z,45.93
2022-08-14T12:51:16.449Z,46.68
2022-08-14T12:52:20.900Z,47.31
2022-08-14T12:53:25.349Z,48.17
2022-08-14T12:54:32.361Z,48.24
2022-08-14T12:56:17.507Z,47.51
2022-08-14T12:56:38.921Z,46.68
2022-08-14T12:57:43.405Z,45.88
2022-08-14T12:58:51.946Z,45.07
2022-08-14T12:59:52.286Z,44.30
2022-08-14T13:01:16.148Z,43.68
2022-08-14T13:02:05.615Z,43.21
2022-08-14T13:03:05.628Z,42.88
2022-08-14T13:04:10.374Z,43.01
2022-08-14T13:05:14.742Z,44.03
2022-08-14T13:06:19.184Z,45.20
2022-08-14T13:07:24.093Z,46.29
2022-08-14T13:08:33.481Z,47.06
2022-08-14T13:09:36.483Z,47.24
2022-08-14T13:10:46.760Z,46.86
2022-08-14T13:11:41.426Z,46.33
2022-08-14T13:13:10.009Z,45.81
2022-08-14T13:13:50.214Z,46.30
2022-08-14T13:14:54.643Z,47.23
2022-08-14T13:15:59.056Z,48.30
2022-08-14T13:17:03.484Z,49.36
2022-08-14T13:18:07.918Z,50.05
2022-08-14T13:19:12.345Z,49.87
2022-08-14T13:20:23.419Z,49.21
2022-08-14T13:21:21.195Z,48.47
2022-08-14T13:22:32.129Z,47.69
2022-08-14T13:23:31.727Z,46.97
2022-08-14T13:24:34.475Z,46.90
2022-08-14T13:25:38.906Z,46.82
2022-08-14T13:26:43.317Z,47.05
2022-08-14T13:27:47.766Z,46.95
2022-08-14T13:29:02.423Z,46.52
2022-08-14T13:29:56.857Z,46.16
2022-08-14T13:31:01.277Z,46.61
2022-08-14T13:32:05.715Z,46.77
2022-08-14T13:33:15.036Z,46.77
2022-08-14T13:34:14.607Z,46.59
2022-08-14T13:35:19.027Z,46.40
2022-08-14T13:36:24.231Z,46.23
2022-08-14T13:37:27.897Z,46.95
2022-08-14T13:38:32.349Z,47.55
2022-08-14T13:39:37.522Z,47.44
2022-08-14T13:40:41.195Z,46.96
2022-08-14T13:41:45.618Z,46.38
2022-08-14T13:42:52.868Z,45.77
2022-08-14T13:43:59.643Z,45.20
2022-08-14T13:44:58.945Z,44.76
2022-08-14T13:46:03.372Z,44.44
2022-08-14T13:47:08.869Z,44.83
2022-08-14T13:48:27.351Z,46.17
2022-08-14T13:49:16.950Z,47.66
2022-08-14T13:50:21.381Z,48.95
2022-08-14T13:51:25.812Z,49.98
2022-08-14T13:52:52.287Z,50.89
2022-08-14T13:53:34.681Z,51.73
2022-08-14T13:54:39.103Z,52.49
2022-08-14T13:55:43.524Z,53.23
2022-08-14T13:56:47.932Z,53.84
2022-08-14T13:58:03.957Z,54.31
2022-08-14T13:58:56.805Z,54.61
2022-08-14T14:00:01.283Z,54.92
2022-08-14T14:01:05.660Z,55.11
2022-08-14T14:02:10.148Z,55.34
2022-08-14T14:03:14.523Z,55.62
2022-08-14T14:04:20.165Z,55.92
2022-08-14T14:05:23.363Z,56.14
2022-08-14T14:06:27.797Z,56.35
2022-08-14T14:07:32.364Z,56.65
2022-08-14T14:08:45.925Z,57.03